createdAt,value
2017-09-07T06:20:17.257Z,101595.77
2017-09-07T06:22:45.147Z,101606.11
2017-09-07T06:25:12.995Z,101593.17
2017-09-07T06:34:53.461Z,101609.55
2017-09-07T06:37:55.588Z,101607.91
2017-09-07T06:40:23.966Z,101603.45
2017-09-07T06:42:52.259Z,101604.98
2017-09-07T06:45:20.631Z,101608.45
2017-09-07T06:47:48.914Z,101603.08
2017-09-07T06:50:17.202Z,101606.75
2017-09-07T06:52:45.581Z,101614.84
2017-09-07T06:55:13.857Z,101615.22
2017-09-07T06:57:42.568Z,101610.36
2017-09-07T07:00:10.925Z,101614.75
2017-09-07T07:02:39.201Z,101612.00
2017-09-07T07:05:07.488Z,101608.53
2017-09-07T07:07:35.900Z,101607.59
2017-09-07T07:10:04.190Z,101613.48
2017-09-07T07:12:32.546Z,101611.30
2017-09-07T07:15:00.867Z,101613.95
2017-09-07T07:17:29.150Z,101616.78
2017-09-07T07:19:57.585Z,101607.61
2017-09-07T07:22:25.876Z,101602.95
2017-09-07T07:24:54.227Z,101608.01
2017-09-07T07:27:22.651Z,101608.05
2017-09-07T07:29:51.023Z,101605.61
2017-09-07T07:32:19.320Z,101603.05
2017-09-07T07:34:48.637Z,101609.87
2017-09-07T07:37:18.006Z,101605.18
2017-09-07T07:39:46.324Z,101605.42
2017-09-07T07:42:14.899Z,101603.30
2017-09-07T07:44:43.353Z,101606.45
2017-09-07T07:47:11.657Z,101607.70
2017-09-07T07:49:40.325Z,101606.05
2017-09-07T07:52:08.723Z,101608.12
2017-09-07T07:54:37.202Z,101606.27
2017-09-07T07:57:05.488Z,101597.50
2017-09-07T07:59:33.882Z,101596.73
2017-09-07T08:02:02.166Z,101594.67
2017-09-07T08:04:30.447Z,101600.53
2017-09-07T08:06:58.814Z,101599.81
2017-09-07T08:09:27.194Z,101599.52
2017-09-07T08:11:55.481Z,101595.37
2017-09-07T08:14:23.762Z,101601.95
2017-09-07T08:16:52.139Z,101600.66
2017-09-07T08:19:20.425Z,101595.71
2017-09-07T08:21:49.005Z,101597.89
2017-09-07T08:24:17.486Z,101602.24
2017-09-07T08:26:45.876Z,101601.44
2017-09-07T08:29:14.152Z,101602.91
2017-09-07T08:31:42.658Z,101610.73
2017-09-07T08:34:11.018Z,101608.72
2017-09-07T08:36:39.467Z,101602.68
2017-09-07T08:39:08.631Z,101599.37
2017-09-07T08:41:36.995Z,101593.00
2017-09-07T08:44:05.590Z,101588.02
2017-09-07T08:46:34.271Z,101588.82
2017-09-07T08:49:02.551Z,101585.83
2017-09-07T08:51:30.846Z,101581.42
2017-09-07T08:53:59.219Z,101584.11
2017-09-07T08:56:27.808Z,101580.11
2017-09-07T08:58:56.248Z,101578.16
2017-09-07T09:01:25.404Z,101571.47
2017-09-07T09:03:53.879Z,101575.07
2017-09-07T09:06:22.350Z,101572.58
2017-09-07T09:08:50.746Z,101569.92
2017-09-07T09:11:19.235Z,101571.12
2017-09-07T09:13:47.634Z,101576.23
2017-09-07T09:16:16.090Z,101574.88
2017-09-07T09:18:44.375Z,101577.54
2017-09-07T09:21:12.659Z,101577.98
2017-09-07T09:23:41.060Z,101569.37
2017-09-07T09:26:09.544Z,101571.92
2017-09-07T09:28:38.114Z,101578.70
2017-09-07T09:31:06.605Z,101581.98
2017-09-07T09:33:34.887Z,101586.60
2017-09-07T09:36:03.241Z,101587.47
2017-09-07T09:38:31.747Z,101588.63
2017-09-07T09:41:00.235Z,101591.81
2017-09-07T09:43:28.722Z,101586.48
2017-09-07T09:45:57.144Z,101586.64
2017-09-07T09:48:25.694Z,101593.22
2017-09-07T09:50:54.378Z,101592.03
2017-09-07T09:53:22.975Z,101591.06
2017-09-07T09:55:51.458Z,101584.48
2017-09-07T09:58:19.941Z,101574.50
2017-09-07T10:00:48.306Z,101575.77
2017-09-07T10:03:16.622Z,101570.11
2017-09-07T10:05:45.094Z,101572.73
2017-09-07T10:08:13.678Z,101572.73
2017-09-07T10:10:42.162Z,101568.55
2017-09-07T10:13:10.443Z,101570.06
2017-09-07T10:15:38.719Z,101567.35
2017-09-07T10:18:07.005Z,101566.05
2017-09-07T10:20:35.395Z,101559.58
2017-09-07T10:23:03.875Z,101559.75
2017-09-07T10:25:32.360Z,101561.67
2017-09-07T10:28:00.739Z,101561.59
2017-09-07T10:30:29.126Z,101567.16
2017-09-07T10:32:57.727Z,101567.64
2017-09-07T10:35:26.105Z,101576.11
2017-09-07T10:37:54.583Z,101568.17
2017-09-07T10:40:22.975Z,101569.56
2017-09-07T10:42:51.247Z,101570.11
2017-09-07T10:45:19.634Z,101570.52
2017-09-07T10:47:48.124Z,101570.59
2017-09-07T10:50:16.403Z,101562.94
2017-09-07T10:52:44.675Z,101566.22
2017-09-07T10:55:12.956Z,101568.06
2017-09-07T10:57:41.442Z,101563.27
2017-09-07T11:00:09.926Z,101565.15
2017-09-07T11:02:38.218Z,101559.36
2017-09-07T11:05:06.495Z,101562.14
2017-09-07T11:07:34.965Z,101555.30
2017-09-07T11:10:03.457Z,101555.37
2017-09-07T11:12:31.839Z,101554.58
2017-09-07T11:15:00.128Z,101549.00
2017-09-07T11:17:28.508Z,101553.74
2017-09-07T11:19:56.782Z,101549.20
2017-09-07T11:22:25.189Z,101545.06
2017-09-07T11:24:53.475Z,101534.45
2017-09-07T11:27:21.954Z,101523.90
2017-09-07T11:29:50.526Z,101525.25
2017-09-07T11:32:18.898Z,101515.66
2017-09-07T11:34:47.194Z,101509.70
2017-09-07T11:37:15.601Z,101505.63
2017-09-07T11:39:44.057Z,101502.64
2017-09-07T11:42:12.706Z,101511.73
2017-09-07T11:44:41.743Z,101513.72
2017-09-07T11:47:10.135Z,101513.55
2017-09-07T11:49:38.415Z,101500.98
2017-09-07T11:52:06.894Z,101502.47
2017-09-07T11:54:35.478Z,101504.91
2017-09-07T11:57:03.948Z,101511.23
2017-09-07T11:59:32.221Z,101500.53
2017-09-07T12:02:01.758Z,101500.06
2017-09-07T12:04:30.065Z,101514.66
2017-09-07T12:06:58.411Z,101505.77
2017-09-07T12:09:26.806Z,101494.41
2017-09-07T12:11:55.106Z,101501.91
2017-09-07T12:14:23.569Z,101500.17
2017-09-07T12:16:51.841Z,101493.78
2017-09-07T12:19:20.336Z,101496.48
2017-09-07T12:21:48.625Z,101494.81
2017-09-07T12:24:17.095Z,101489.03
2017-09-07T12:26:45.587Z,101493.47
2017-09-07T12:29:14.291Z,101486.03
2017-09-07T12:31:42.894Z,101472.30
2017-09-07T12:34:11.445Z,101480.17
2017-09-07T12:36:39.832Z,101473.47
2017-09-07T12:39:08.113Z,101469.44
2017-09-07T12:41:36.391Z,101468.69
2017-09-07T12:44:04.879Z,101473.90
2017-09-07T12:46:33.678Z,101468.48
2017-09-07T12:49:01.962Z,101467.81
2017-09-07T12:51:30.443Z,101458.72
2017-09-07T12:53:58.936Z,101464.58
2017-09-07T12:56:27.302Z,101455.52
2017-09-07T12:58:55.678Z,101461.34
2017-09-07T13:01:23.961Z,101464.82
2017-09-07T13:03:52.237Z,101473.41
2017-09-07T13:06:20.524Z,101473.69
2017-09-07T13:08:48.821Z,101478.00
2017-09-07T13:11:17.306Z,101474.16
2017-09-07T13:13:45.794Z,101461.41
2017-09-07T13:16:14.179Z,101464.80
2017-09-07T13:18:42.659Z,101465.14
2017-09-07T13:21:11.152Z,101453.53
2017-09-07T13:23:39.614Z,101462.44
2017-09-07T13:26:07.891Z,101455.81
2017-09-07T13:28:36.937Z,101444.33
2017-09-07T13:31:05.539Z,101447.47
2017-09-07T13:33:33.928Z,101444.28
2017-09-07T13:36:02.571Z,101432.77
2017-09-07T13:38:31.259Z,101443.19
2017-09-07T13:40:59.846Z,101438.44
2017-09-07T13:43:28.334Z,101433.55
2017-09-07T13:45:57.026Z,101427.52
2017-09-07T13:48:25.304Z,101422.53
2017-09-07T13:50:53.579Z,101441.88
2017-09-07T13:53:21.998Z,101428.13
2017-09-07T13:55:50.363Z,101423.02
2017-09-07T13:58:18.643Z,101420.17
2017-09-07T14:00:47.327Z,101424.59
2017-09-07T14:03:15.906Z,101413.41
2017-09-07T14:05:44.412Z,101411.81
2017-09-07T14:08:12.691Z,101412.93
2017-09-07T14:10:40.994Z,101404.75
2017-09-07T14:13:09.335Z,101404.62
2017-09-07T14:15:37.754Z,101401.53
2017-09-07T14:18:06.046Z,101397.99
2017-09-07T14:20:34.386Z,101401.72
2017-09-07T14:23:03.078Z,101398.06
2017-09-07T14:25:31.449Z,101396.30
2017-09-07T14:27:59.732Z,101387.30
2017-09-07T14:30:28.019Z,101385.39
2017-09-07T14:32:56.461Z,101388.94
2017-09-07T14:35:25.607Z,101387.33
2017-09-07T14:37:53.900Z,101379.42
2017-09-07T14:40:23.504Z,101383.48
2017-09-07T14:42:51.994Z,101379.72
2017-09-07T14:45:20.471Z,101369.87
2017-09-07T14:47:48.953Z,101383.42
2017-09-07T14:50:17.339Z,101376.45
2017-09-07T14:52:46.030Z,101371.81
2017-09-07T14:55:14.323Z,101373.25
2017-09-07T14:57:42.686Z,101361.97
2017-09-07T15:00:11.290Z,101367.52
2017-09-07T15:02:39.592Z,101352.55
2017-09-07T15:05:07.887Z,101355.69
2017-09-07T15:07:36.329Z,101362.50
2017-09-07T15:10:04.622Z,101356.73
2017-09-07T15:12:33.103Z,101351.27
2017-09-07T15:15:01.584Z,101352.10
2017-09-07T15:17:30.070Z,101355.93
2017-09-07T15:19:58.346Z,101353.12
2017-09-07T15:22:26.623Z,101350.50
2017-09-07T15:24:54.905Z,101358.30
2017-09-07T15:27:23.290Z,101352.44
2017-09-07T15:29:51.575Z,101359.17
2017-09-07T15:32:19.862Z,101364.81
2017-09-07T15:34:48.246Z,101370.50
2017-09-07T15:37:16.618Z,101359.09
2017-09-07T15:39:45.204Z,101352.56
2017-09-07T15:42:13.603Z,101352.70
2017-09-07T15:44:42.177Z,101341.92
2017-09-07T15:47:10.474Z,101336.59
2017-09-07T15:49:38.771Z,101337.55
2017-09-07T15:52:07.123Z,101330.86
2017-09-07T15:54:35.511Z,101326.70
2017-09-07T15:57:04.006Z,101327.78
2017-09-07T15:59:32.285Z,101324.52
2017-09-07T16:02:00.659Z,101332.58
2017-09-07T16:04:29.001Z,101333.23
2017-09-07T16:06:57.408Z,101320.66
2017-09-07T16:09:25.684Z,101320.52
2017-09-07T16:11:53.982Z,101321.75
2017-09-07T16:14:22.269Z,101317.53
2017-09-07T16:16:50.749Z,101316.23
2017-09-07T16:19:19.171Z,101317.88
2017-09-07T16:21:47.517Z,101315.45
2017-09-07T16:24:15.902Z,101318.58
2017-09-07T16:26:44.188Z,101316.50
2017-09-07T16:29:12.558Z,101322.34
2017-09-07T16:31:40.888Z,101307.10
2017-09-07T16:34:09.929Z,101315.92
2017-09-07T16:36:38.335Z,101315.52
2017-09-07T16:39:06.743Z,101303.84
2017-09-07T16:41:35.097Z,101312.50
2017-09-07T16:44:03.393Z,101311.94
2017-09-07T16:46:31.674Z,101305.13
2017-09-07T16:48:59.972Z,101313.82
2017-09-07T16:51:28.319Z,101307.41
2017-09-07T16:53:56.722Z,101298.25
2017-09-07T16:56:25.087Z,101298.91
2017-09-07T16:58:53.378Z,101302.32
2017-09-07T17:01:21.654Z,101297.92
2017-09-07T17:03:49.933Z,101301.87
2017-09-07T17:06:18.332Z,101301.17
2017-09-07T17:08:46.795Z,101295.80
2017-09-07T17:11:15.285Z,101286.91
2017-09-07T17:13:43.571Z,101286.06
2017-09-07T17:16:11.846Z,101284.84
2017-09-07T17:18:40.154Z,101276.13
2017-09-07T17:21:08.510Z,101277.52
2017-09-07T17:23:36.806Z,101274.50
2017-09-07T17:26:05.214Z,101272.20
2017-09-07T17:28:33.511Z,101268.66
2017-09-07T17:31:02.559Z,101264.37
2017-09-07T17:33:30.835Z,101266.29
2017-09-07T17:35:59.115Z,101260.59
2017-09-07T17:38:27.490Z,101255.94
2017-09-07T17:40:55.768Z,101259.75
2017-09-07T17:43:24.082Z,101260.28
2017-09-07T17:45:52.446Z,101251.28
2017-09-07T17:48:20.817Z,101253.48
2017-09-07T17:50:49.346Z,101249.11
2017-09-07T17:53:17.623Z,101256.16
2017-09-07T17:55:45.938Z,101250.03
2017-09-07T17:58:15.074Z,101259.41
2017-09-07T18:00:43.404Z,101237.66
2017-09-07T18:03:11.707Z,101241.03
2017-09-07T18:05:40.944Z,101248.76
2017-09-07T18:08:09.349Z,101243.19
2017-09-07T18:10:37.630Z,101235.17
2017-09-07T18:13:05.922Z,101233.13
2017-09-07T18:15:34.379Z,101235.55
2017-09-07T18:18:02.658Z,101242.45
2017-09-07T18:20:31.029Z,101234.17
2017-09-07T18:22:59.429Z,101234.03
2017-09-07T18:25:27.711Z,101231.04
2017-09-07T18:27:55.994Z,101228.59
2017-09-07T18:30:24.300Z,101229.78
2017-09-07T18:32:52.583Z,101218.11
2017-09-07T18:35:20.865Z,101220.92
2017-09-07T18:37:49.158Z,101220.10
2017-09-07T18:40:18.203Z,101212.91
2017-09-07T18:42:46.687Z,101215.20
2017-09-07T18:45:14.958Z,101215.33
2017-09-07T18:47:43.254Z,101205.91
2017-09-07T18:50:11.538Z,101202.69
2017-09-07T18:52:39.843Z,101204.80
2017-09-07T18:55:08.132Z,101201.68
2017-09-07T18:57:36.474Z,101192.16
2017-09-07T19:00:04.837Z,101192.55
2017-09-07T19:02:33.360Z,101197.16
2017-09-07T19:05:01.732Z,101189.37
2017-09-07T19:07:30.121Z,101187.09
2017-09-07T19:09:58.490Z,101180.14
2017-09-07T19:12:26.978Z,101176.88
2017-09-07T19:14:55.260Z,101176.19
2017-09-07T19:17:23.686Z,101171.00
2017-09-07T19:19:51.957Z,101172.08
2017-09-07T19:22:20.243Z,101165.84
2017-09-07T19:24:48.590Z,101163.51
2017-09-07T19:27:16.882Z,101165.13
2017-09-07T19:29:45.180Z,101160.91
2017-09-07T19:32:13.468Z,101169.70
2017-09-07T19:34:41.786Z,101170.12
2017-09-07T19:37:10.837Z,101160.05
2017-09-07T19:39:39.195Z,101156.50
2017-09-07T19:42:07.577Z,101150.80
2017-09-07T19:44:35.866Z,101146.16
2017-09-07T19:47:04.246Z,101141.79
2017-09-07T19:49:32.626Z,101130.39
2017-09-07T19:52:00.919Z,101126.86
2017-09-07T19:54:29.291Z,101126.31
2017-09-07T19:56:57.573Z,101123.30
2017-09-07T19:59:25.858Z,101120.72
2017-09-07T20:01:54.141Z,101117.85
2017-09-07T20:04:22.419Z,101111.47
2017-09-07T20:06:50.726Z,101107.14
2017-09-07T20:09:19.018Z,101105.33
2017-09-07T20:11:47.312Z,101103.81
2017-09-07T20:14:16.459Z,101098.11
2017-09-07T20:16:44.767Z,101094.60
2017-09-07T20:19:13.071Z,101094.94
2017-09-07T20:21:41.353Z,101087.05
2017-09-07T20:24:10.414Z,101074.17
2017-09-07T20:26:38.790Z,101070.08
2017-09-07T20:29:07.077Z,101068.19
2017-09-07T20:31:35.353Z,101067.34
2017-09-07T20:34:03.727Z,101064.48
2017-09-07T20:36:32.113Z,101069.77
2017-09-07T20:39:00.499Z,101058.23
2017-09-07T20:41:28.780Z,101041.93
2017-09-07T20:43:57.050Z,101041.34
2017-09-07T20:46:25.328Z,101027.63
2017-09-07T20:48:53.606Z,101029.65
2017-09-07T20:51:21.872Z,101041.15
2017-09-07T20:53:50.947Z,101036.54
2017-09-07T20:56:19.238Z,101041.56
2017-09-07T20:58:48.312Z,101038.45
2017-09-07T21:01:16.610Z,101048.06
2017-09-07T21:03:44.917Z,101030.31
2017-09-07T21:06:13.207Z,101026.09
2017-09-07T21:08:41.511Z,101014.03
2017-09-07T21:11:09.817Z,101014.96
2017-09-07T21:13:38.118Z,101007.64
2017-09-07T21:16:07.204Z,101005.58
2017-09-07T21:18:35.490Z,100998.39
2017-09-07T21:21:03.795Z,100992.56
2017-09-07T21:23:32.941Z,100996.09
2017-09-07T21:26:01.315Z,100993.55
2017-09-07T21:28:29.669Z,100989.75
2017-09-07T21:30:58.801Z,100985.80
2017-09-07T21:33:27.183Z,100975.03
2017-09-07T21:35:55.497Z,100979.72
2017-09-07T21:38:23.882Z,100991.09
2017-09-07T21:40:52.179Z,100983.30
2017-09-07T21:43:21.271Z,100975.97
2017-09-07T21:45:50.386Z,100968.78
2017-09-07T21:48:19.526Z,100965.00
2017-09-07T21:50:47.825Z,100961.08
2017-09-07T21:53:16.190Z,100956.44
2017-09-07T21:55:44.571Z,100946.50
2017-09-07T21:58:12.919Z,100944.91
2017-09-07T22:00:41.984Z,100940.28
2017-09-07T22:03:10.275Z,100937.41
2017-09-07T22:05:38.567Z,100931.58
2017-09-07T22:08:07.627Z,100934.25
2017-09-07T22:10:35.998Z,100923.92
2017-09-07T22:13:04.290Z,100919.22
2017-09-07T22:15:32.593Z,100914.16
2017-09-07T22:18:00.949Z,100909.28
2017-09-07T22:20:29.239Z,100913.02
2017-09-07T22:22:57.531Z,100908.23
2017-09-07T22:25:25.897Z,100908.34
2017-09-07T22:27:54.210Z,100906.84
2017-09-07T22:30:23.270Z,100904.14
2017-09-07T22:32:51.560Z,100899.23
2017-09-07T22:35:19.846Z,100885.84
2017-09-07T22:37:48.218Z,100888.83
2017-09-07T22:40:16.525Z,100887.94
2017-09-07T22:42:44.824Z,100879.23
2017-09-07T22:45:13.981Z,100870.59
2017-09-07T22:47:42.358Z,100872.19
2017-09-07T22:50:10.735Z,100872.39
2017-09-07T22:52:39.025Z,100869.38
2017-09-07T22:55:07.310Z,100873.57
2017-09-07T22:57:35.683Z,100871.09
2017-09-07T23:00:03.972Z,100860.52
2017-09-07T23:02:32.367Z,100847.52
2017-09-07T23:05:00.668Z,100851.89
2017-09-07T23:07:28.958Z,100846.63
2017-09-07T23:09:57.237Z,100847.98
2017-09-07T23:12:25.534Z,100847.80
2017-09-07T23:14:54.601Z,100842.39
2017-09-07T23:17:22.963Z,100841.04
2017-09-07T23:19:51.261Z,100819.03
2017-09-07T23:22:19.556Z,100820.89
2017-09-07T23:24:47.840Z,100820.61
2017-09-07T23:27:16.178Z,100815.48
2017-09-07T23:29:44.463Z,100821.20
2017-09-07T23:32:12.741Z,100817.59
2017-09-07T23:34:41.329Z,100812.31
2017-09-07T23:37:09.616Z,100802.56
2017-09-07T23:39:37.994Z,100800.36
2017-09-07T23:42:06.278Z,100808.08
2017-09-07T23:44:34.558Z,100793.19
2017-09-07T23:47:02.849Z,100796.54
2017-09-07T23:49:31.215Z,100783.55
2017-09-07T23:51:59.511Z,100773.11
2017-09-07T23:54:27.823Z,100775.41
2017-09-07T23:56:56.174Z,100773.80
2017-09-07T23:59:24.562Z,100772.42
